<?xml version='1.0' encoding='UTF-8'?>
<gpx version="1.1" creator="https://www.komoot.de" xmlns="http://www.topografix.com/GPX/1/1" xmlns:xsi="http://www.w3.org/2001/XMLSchema-instance" xsi:schemaLocation="http://www.topografix.com/GPX/1/1 http://www.topografix.com/GPX/1/1/gpx.xsd">
  <metadata>
    <name>PWW Zarrentin, 6km, Biosphärenreservat Schaalsee,  AES, 01.08.2021 14:59</name>
    <author>
      <link href="https://www.komoot.de">
        <text>komoot</text>
        <type>text/html</type>
      </link>
    </author>
  </metadata>
  <trk>
    <name>PWW Zarrentin, 6km, Biosphärenreservat Schaalsee,  AES, 01.08.2021 14:59</name>
    <trkseg>
      <trkpt lat="53.552523" lon="10.917235">
        <ele>79.016190</ele>
        <time>2021-08-01T11:30:11.810Z</time>
      </trkpt>
      <trkpt lat="53.552433" lon="10.917260">
        <ele>79.016190</ele>
        <time>2021-08-01T11:30:20.236Z</time>
      </trkpt>
      <trkpt lat="53.552341" lon="10.917313">
        <ele>79.016190</ele>
        <time>2021-08-01T11:30:26.237Z</time>
      </trkpt>
      <trkpt lat="53.552321" lon="10.917474">
        <ele>79.016190</ele>
        <time>2021-08-01T11:30:50.234Z</time>
      </trkpt>
      <trkpt lat="53.552349" lon="10.917621">
        <ele>79.016190</ele>
        <time>2021-08-01T11:30:56.223Z</time>
      </trkpt>
      <trkpt lat="53.552373" lon="10.917767">
        <ele>79.016190</ele>
        <time>2021-08-01T11:31:02.219Z</time>
      </trkpt>
      <trkpt lat="53.552399" lon="10.917922">
        <ele>79.016190</ele>
        <time>2021-08-01T11:31:10.228Z</time>
      </trkpt>
      <trkpt lat="53.552422" lon="10.918073">
        <ele>79.016190</ele>
        <time>2021-08-01T11:31:17.216Z</time>
      </trkpt>
      <trkpt lat="53.552449" lon="10.918230">
        <ele>79.016190</ele>
        <time>2021-08-01T11:31:26.224Z</time>
      </trkpt>
      <trkpt lat="53.552471" lon="10.918411">
        <ele>79.016190</ele>
        <time>2021-08-01T11:31:33.265Z</time>
      </trkpt>
      <trkpt lat="53.552484" lon="10.918572">
        <ele>78.983176</ele>
        <time>2021-08-01T11:31:39.231Z</time>
      </trkpt>
      <trkpt lat="53.552508" lon="10.918728">
        <ele>78.930705</ele>
        <time>2021-08-01T11:31:47.237Z</time>
      </trkpt>
      <trkpt lat="53.552566" lon="10.918859">
        <ele>78.877508</ele>
        <time>2021-08-01T11:31:56.233Z</time>
      </trkpt>
      <trkpt lat="53.552669" lon="10.918847">
        <ele>78.820919</ele>
        <time>2021-08-01T11:32:21.216Z</time>
      </trkpt>
      <trkpt lat="53.552762" lon="10.918847">
        <ele>78.769947</ele>
        <time>2021-08-01T11:32:29.219Z</time>
      </trkpt>
      <trkpt lat="53.552851" lon="10.918893">
        <ele>78.718920</ele>
        <time>2021-08-01T11:32:37.213Z</time>
      </trkpt>
      <trkpt lat="53.552951" lon="10.918905">
        <ele>78.663972</ele>
        <time>2021-08-01T11:32:45.226Z</time>
      </trkpt>
      <trkpt lat="53.553130" lon="10.918967">
        <ele>78.563809</ele>
        <time>2021-08-01T11:33:10.236Z</time>
      </trkpt>
      <trkpt lat="53.553230" lon="10.918958">
        <ele>78.508922</ele>
        <time>2021-08-01T11:33:17.241Z</time>
      </trkpt>
      <trkpt lat="53.553334" lon="10.918961">
        <ele>78.451912</ele>
        <time>2021-08-01T11:33:24.254Z</time>
      </trkpt>
      <trkpt lat="53.553424" lon="10.918970">
        <ele>78.402497</ele>
        <time>2021-08-01T11:33:31.232Z</time>
      </trkpt>
      <trkpt lat="53.553514" lon="10.918982">
        <ele>78.353015</ele>
        <time>2021-08-01T11:33:40.221Z</time>
      </trkpt>
      <trkpt lat="53.553610" lon="10.918980">
        <ele>78.300395</ele>
        <time>2021-08-01T11:33:48.212Z</time>
      </trkpt>
      <trkpt lat="53.553709" lon="10.918960">
        <ele>78.245745</ele>
        <time>2021-08-01T11:33:55.214Z</time>
      </trkpt>
      <trkpt lat="53.553808" lon="10.918959">
        <ele>78.191483</ele>
        <time>2021-08-01T11:34:11.217Z</time>
      </trkpt>
      <trkpt lat="53.553905" lon="10.918921">
        <ele>78.136898</ele>
        <time>2021-08-01T11:34:25.220Z</time>
      </trkpt>
      <trkpt lat="53.554000" lon="10.918905">
        <ele>78.084569</ele>
        <time>2021-08-01T11:34:34.241Z</time>
      </trkpt>
      <trkpt lat="53.554104" lon="10.918884">
        <ele>78.034411</ele>
        <time>2021-08-01T11:34:43.234Z</time>
      </trkpt>
      <trkpt lat="53.554184" lon="10.918794">
        <ele>78.100568</ele>
        <time>2021-08-01T11:34:57.236Z</time>
      </trkpt>
      <trkpt lat="53.554277" lon="10.918807">
        <ele>78.164729</ele>
        <time>2021-08-01T11:35:10.265Z</time>
      </trkpt>
      <trkpt lat="53.554366" lon="10.918786">
        <ele>78.226519</ele>
        <time>2021-08-01T11:35:16.235Z</time>
      </trkpt>
      <trkpt lat="53.554458" lon="10.918777">
        <ele>78.289879</ele>
        <time>2021-08-01T11:35:23.237Z</time>
      </trkpt>
      <trkpt lat="53.554555" lon="10.918750">
        <ele>78.357477</ele>
        <time>2021-08-01T11:35:31.249Z</time>
      </trkpt>
      <trkpt lat="53.554649" lon="10.918713">
        <ele>78.423849</ele>
        <time>2021-08-01T11:35:38.236Z</time>
      </trkpt>
      <trkpt lat="53.554741" lon="10.918647">
        <ele>78.492607</ele>
        <time>2021-08-01T11:35:47.246Z</time>
      </trkpt>
      <trkpt lat="53.554818" lon="10.918556">
        <ele>78.557292</ele>
        <time>2021-08-01T11:35:54.258Z</time>
      </trkpt>
      <trkpt lat="53.554905" lon="10.918505">
        <ele>78.620632</ele>
        <time>2021-08-01T11:36:02.263Z</time>
      </trkpt>
      <trkpt lat="53.555004" lon="10.918486">
        <ele>78.689139</ele>
        <time>2021-08-01T11:36:10.238Z</time>
      </trkpt>
      <trkpt lat="53.555103" lon="10.918471">
        <ele>78.757481</ele>
        <time>2021-08-01T11:36:17.253Z</time>
      </trkpt>
      <trkpt lat="53.555192" lon="10.918453">
        <ele>78.819112</ele>
        <time>2021-08-01T11:36:24.239Z</time>
      </trkpt>
      <trkpt lat="53.555290" lon="10.918445">
        <ele>78.886571</ele>
        <time>2021-08-01T11:36:36.218Z</time>
      </trkpt>
      <trkpt lat="53.555384" lon="10.918435">
        <ele>78.951329</ele>
        <time>2021-08-01T11:36:43.237Z</time>
      </trkpt>
      <trkpt lat="53.555476" lon="10.918493">
        <ele>79.018873</ele>
        <time>2021-08-01T11:36:50.233Z</time>
      </trkpt>
      <trkpt lat="53.555566" lon="10.918509">
        <ele>79.081096</ele>
        <time>2021-08-01T11:36:57.230Z</time>
      </trkpt>
      <trkpt lat="53.555660" lon="10.918495">
        <ele>79.145977</ele>
        <time>2021-08-01T11:37:04.229Z</time>
      </trkpt>
      <trkpt lat="53.555754" lon="10.918511">
        <ele>79.210936</ele>
        <time>2021-08-01T11:37:11.249Z</time>
      </trkpt>
      <trkpt lat="53.555846" lon="10.918515">
        <ele>79.262380</ele>
        <time>2021-08-01T11:37:18.241Z</time>
      </trkpt>
      <trkpt lat="53.555932" lon="10.918580">
        <ele>79.220574</ele>
        <time>2021-08-01T11:37:24.250Z</time>
      </trkpt>
      <trkpt lat="53.556028" lon="10.918610">
        <ele>79.177274</ele>
        <time>2021-08-01T11:37:32.266Z</time>
      </trkpt>
      <trkpt lat="53.556120" lon="10.918669">
        <ele>79.133614</ele>
        <time>2021-08-01T11:37:40.249Z</time>
      </trkpt>
      <trkpt lat="53.556210" lon="10.918730">
        <ele>79.090589</ele>
        <time>2021-08-01T11:37:48.226Z</time>
      </trkpt>
      <trkpt lat="53.556241" lon="10.918884">
        <ele>79.047753</ele>
        <time>2021-08-01T11:37:57.250Z</time>
      </trkpt>
      <trkpt lat="53.556227" lon="10.919055">
        <ele>79.002280</ele>
        <time>2021-08-01T11:38:12.239Z</time>
      </trkpt>
      <trkpt lat="53.556286" lon="10.918941">
        <ele>78.962449</ele>
        <time>2021-08-01T11:38:28.235Z</time>
      </trkpt>
      <trkpt lat="53.556346" lon="10.918817">
        <ele>78.920318</ele>
        <time>2021-08-01T11:38:35.242Z</time>
      </trkpt>
      <trkpt lat="53.556435" lon="10.918840">
        <ele>78.880386</ele>
        <time>2021-08-01T11:38:43.233Z</time>
      </trkpt>
      <trkpt lat="53.556510" lon="10.918945">
        <ele>78.837127</ele>
        <time>2021-08-01T11:38:51.223Z</time>
      </trkpt>
      <trkpt lat="53.556596" lon="10.919022">
        <ele>78.793930</ele>
        <time>2021-08-01T11:38:59.255Z</time>
      </trkpt>
      <trkpt lat="53.556680" lon="10.919090">
        <ele>78.752595</ele>
        <time>2021-08-01T11:39:05.257Z</time>
      </trkpt>
      <trkpt lat="53.556766" lon="10.919134">
        <ele>78.712734</ele>
        <time>2021-08-01T11:39:11.260Z</time>
      </trkpt>
      <trkpt lat="53.556876" lon="10.919187">
        <ele>78.661994</ele>
        <time>2021-08-01T11:39:22.251Z</time>
      </trkpt>
      <trkpt lat="53.556966" lon="10.919247">
        <ele>78.619066</ele>
        <time>2021-08-01T11:39:26.254Z</time>
      </trkpt>
      <trkpt lat="53.557044" lon="10.919329">
        <ele>78.578284</ele>
        <time>2021-08-01T11:39:32.249Z</time>
      </trkpt>
      <trkpt lat="53.557126" lon="10.919413">
        <ele>78.535716</ele>
        <time>2021-08-01T11:39:39.253Z</time>
      </trkpt>
      <trkpt lat="53.557198" lon="10.919520">
        <ele>78.493125</ele>
        <time>2021-08-01T11:39:53.253Z</time>
      </trkpt>
      <trkpt lat="53.557278" lon="10.919614">
        <ele>78.483094</ele>
        <time>2021-08-01T11:40:02.243Z</time>
      </trkpt>
      <trkpt lat="53.557361" lon="10.919671">
        <ele>78.511040</ele>
        <time>2021-08-01T11:40:08.231Z</time>
      </trkpt>
      <trkpt lat="53.557450" lon="10.919741">
        <ele>78.541666</ele>
        <time>2021-08-01T11:40:15.221Z</time>
      </trkpt>
      <trkpt lat="53.557537" lon="10.919782">
        <ele>78.569832</ele>
        <time>2021-08-01T11:40:23.260Z</time>
      </trkpt>
      <trkpt lat="53.557615" lon="10.919870">
        <ele>78.599105</ele>
        <time>2021-08-01T11:40:30.232Z</time>
      </trkpt>
      <trkpt lat="53.557698" lon="10.919931">
        <ele>78.627340</ele>
        <time>2021-08-01T11:40:38.268Z</time>
      </trkpt>
      <trkpt lat="53.557783" lon="10.920008">
        <ele>78.657433</ele>
        <time>2021-08-01T11:40:44.230Z</time>
      </trkpt>
      <trkpt lat="53.557869" lon="10.920085">
        <ele>78.687800</ele>
        <time>2021-08-01T11:40:51.266Z</time>
      </trkpt>
      <trkpt lat="53.557953" lon="10.920143">
        <ele>78.716106</ele>
        <time>2021-08-01T11:40:59.251Z</time>
      </trkpt>
      <trkpt lat="53.558046" lon="10.920184">
        <ele>78.746077</ele>
        <time>2021-08-01T11:41:19.249Z</time>
      </trkpt>
      <trkpt lat="53.558137" lon="10.920208">
        <ele>78.774794</ele>
        <time>2021-08-01T11:41:26.240Z</time>
      </trkpt>
      <trkpt lat="53.558235" lon="10.920280">
        <ele>78.808129</ele>
        <time>2021-08-01T11:41:35.250Z</time>
      </trkpt>
      <trkpt lat="53.558336" lon="10.920319">
        <ele>78.840435</ele>
        <time>2021-08-01T11:41:41.256Z</time>
      </trkpt>
      <trkpt lat="53.558424" lon="10.920361">
        <ele>78.868951</ele>
        <time>2021-08-01T11:41:48.241Z</time>
      </trkpt>
      <trkpt lat="53.558521" lon="10.920375">
        <ele>78.899303</ele>
        <time>2021-08-01T11:41:55.243Z</time>
      </trkpt>
      <trkpt lat="53.558618" lon="10.920400">
        <ele>78.929896</ele>
        <time>2021-08-01T11:42:02.257Z</time>
      </trkpt>
      <trkpt lat="53.558711" lon="10.920412">
        <ele>78.958975</ele>
        <time>2021-08-01T11:42:09.222Z</time>
      </trkpt>
      <trkpt lat="53.558812" lon="10.920403">
        <ele>78.990507</ele>
        <time>2021-08-01T11:42:17.237Z</time>
      </trkpt>
      <trkpt lat="53.558905" lon="10.920379">
        <ele>79.019839</ele>
        <time>2021-08-01T11:42:24.235Z</time>
      </trkpt>
      <trkpt lat="53.558997" lon="10.920392">
        <ele>78.996193</ele>
        <time>2021-08-01T11:42:36.205Z</time>
      </trkpt>
      <trkpt lat="53.559087" lon="10.920415">
        <ele>78.944137</ele>
        <time>2021-08-01T11:42:41.213Z</time>
      </trkpt>
      <trkpt lat="53.559178" lon="10.920385">
        <ele>78.891112</ele>
        <time>2021-08-01T11:42:52.223Z</time>
      </trkpt>
      <trkpt lat="53.559278" lon="10.920382">
        <ele>78.833919</ele>
        <time>2021-08-01T11:43:00.227Z</time>
      </trkpt>
      <trkpt lat="53.559374" lon="10.920360">
        <ele>78.778516</ele>
        <time>2021-08-01T11:43:08.251Z</time>
      </trkpt>
      <trkpt lat="53.559464" lon="10.920399">
        <ele>78.725372</ele>
        <time>2021-08-01T11:43:15.228Z</time>
      </trkpt>
      <trkpt lat="53.559547" lon="10.920475">
        <ele>78.671344</ele>
        <time>2021-08-01T11:43:22.262Z</time>
      </trkpt>
      <trkpt lat="53.559637" lon="10.920568">
        <ele>78.610957</ele>
        <time>2021-08-01T11:43:30.227Z</time>
      </trkpt>
      <trkpt lat="53.559720" lon="10.920655">
        <ele>78.555047</ele>
        <time>2021-08-01T11:43:38.249Z</time>
      </trkpt>
      <trkpt lat="53.559795" lon="10.920747">
        <ele>78.501982</ele>
        <time>2021-08-01T11:43:45.230Z</time>
      </trkpt>
      <trkpt lat="53.559863" lon="10.920848">
        <ele>78.450127</ele>
        <time>2021-08-01T11:43:52.225Z</time>
      </trkpt>
      <trkpt lat="53.559934" lon="10.920944">
        <ele>78.398053</ele>
        <time>2021-08-01T11:43:59.248Z</time>
      </trkpt>
      <trkpt lat="53.560021" lon="10.921048">
        <ele>78.337037</ele>
        <time>2021-08-01T11:44:08.228Z</time>
      </trkpt>
      <trkpt lat="53.560094" lon="10.921139">
        <ele>78.285095</ele>
        <time>2021-08-01T11:44:15.241Z</time>
      </trkpt>
      <trkpt lat="53.560169" lon="10.921229">
        <ele>78.232427</ele>
        <time>2021-08-01T11:44:21.253Z</time>
      </trkpt>
      <trkpt lat="53.560296" lon="10.921372">
        <ele>78.145058</ele>
        <time>2021-08-01T11:44:50.229Z</time>
      </trkpt>
      <trkpt lat="53.560375" lon="10.921479">
        <ele>78.087078</ele>
        <time>2021-08-01T11:44:58.222Z</time>
      </trkpt>
      <trkpt lat="53.560483" lon="10.921614">
        <ele>78.010158</ele>
        <time>2021-08-01T11:45:26.234Z</time>
      </trkpt>
      <trkpt lat="53.560564" lon="10.921715">
        <ele>78.023177</ele>
        <time>2021-08-01T11:45:34.250Z</time>
      </trkpt>
      <trkpt lat="53.560669" lon="10.921868">
        <ele>78.058117</ele>
        <time>2021-08-01T11:46:05.244Z</time>
      </trkpt>
      <trkpt lat="53.560761" lon="10.921926">
        <ele>78.082835</ele>
        <time>2021-08-01T11:46:23.261Z</time>
      </trkpt>
      <trkpt lat="53.560851" lon="10.921974">
        <ele>78.106589</ele>
        <time>2021-08-01T11:46:46.235Z</time>
      </trkpt>
      <trkpt lat="53.560941" lon="10.921962">
        <ele>78.129304</ele>
        <time>2021-08-01T11:46:54.249Z</time>
      </trkpt>
      <trkpt lat="53.561024" lon="10.921903">
        <ele>78.151973</ele>
        <time>2021-08-01T11:47:00.251Z</time>
      </trkpt>
      <trkpt lat="53.561109" lon="10.921855">
        <ele>78.174531</ele>
        <time>2021-08-01T11:47:07.246Z</time>
      </trkpt>
      <trkpt lat="53.561201" lon="10.921815">
        <ele>78.198439</ele>
        <time>2021-08-01T11:47:15.247Z</time>
      </trkpt>
      <trkpt lat="53.561288" lon="10.921750">
        <ele>78.222387</ele>
        <time>2021-08-01T11:47:23.235Z</time>
      </trkpt>
      <trkpt lat="53.561375" lon="10.921684">
        <ele>78.246397</ele>
        <time>2021-08-01T11:47:30.255Z</time>
      </trkpt>
      <trkpt lat="53.561466" lon="10.921628">
        <ele>78.270775</ele>
        <time>2021-08-01T11:47:38.253Z</time>
      </trkpt>
      <trkpt lat="53.561555" lon="10.921586">
        <ele>78.294031</ele>
        <time>2021-08-01T11:47:45.241Z</time>
      </trkpt>
      <trkpt lat="53.561645" lon="10.921559">
        <ele>78.317033</ele>
        <time>2021-08-01T11:47:52.233Z</time>
      </trkpt>
      <trkpt lat="53.561731" lon="10.921478">
        <ele>78.341827</ele>
        <time>2021-08-01T11:47:59.253Z</time>
      </trkpt>
      <trkpt lat="53.561807" lon="10.921388">
        <ele>78.365206</ele>
        <time>2021-08-01T11:48:05.255Z</time>
      </trkpt>
      <trkpt lat="53.561878" lon="10.921279">
        <ele>78.389382</ele>
        <time>2021-08-01T11:48:12.252Z</time>
      </trkpt>
      <trkpt lat="53.561955" lon="10.921193">
        <ele>78.412631</ele>
        <time>2021-08-01T11:48:19.248Z</time>
      </trkpt>
      <trkpt lat="53.562028" lon="10.921073">
        <ele>78.438301</ele>
        <time>2021-08-01T11:48:27.254Z</time>
      </trkpt>
      <trkpt lat="53.562103" lon="10.920980">
        <ele>78.477237</ele>
        <time>2021-08-01T11:48:34.250Z</time>
      </trkpt>
      <trkpt lat="53.562183" lon="10.920877">
        <ele>78.554289</ele>
        <time>2021-08-01T11:48:42.270Z</time>
      </trkpt>
      <trkpt lat="53.562256" lon="10.920758">
        <ele>78.632029</ele>
        <time>2021-08-01T11:48:50.258Z</time>
      </trkpt>
      <trkpt lat="53.562317" lon="10.920643">
        <ele>78.702093</ele>
        <time>2021-08-01T11:48:58.233Z</time>
      </trkpt>
      <trkpt lat="53.562441" lon="10.920507">
        <ele>78.815317</ele>
        <time>2021-08-01T11:49:26.238Z</time>
      </trkpt>
      <trkpt lat="53.562512" lon="10.920397">
        <ele>78.889136</ele>
        <time>2021-08-01T11:49:36.228Z</time>
      </trkpt>
      <trkpt lat="53.562589" lon="10.920296">
        <ele>78.963815</ele>
        <time>2021-08-01T11:49:46.237Z</time>
      </trkpt>
      <trkpt lat="53.562661" lon="10.920200">
        <ele>79.034082</ele>
        <time>2021-08-01T11:49:53.250Z</time>
      </trkpt>
      <trkpt lat="53.562726" lon="10.920089">
        <ele>79.104915</ele>
        <time>2021-08-01T11:50:02.223Z</time>
      </trkpt>
      <trkpt lat="53.562793" lon="10.919945">
        <ele>79.188038</ele>
        <time>2021-08-01T11:50:08.247Z</time>
      </trkpt>
      <trkpt lat="53.562852" lon="10.919802">
        <ele>79.267158</ele>
        <time>2021-08-01T11:50:15.251Z</time>
      </trkpt>
      <trkpt lat="53.562918" lon="10.919699">
        <ele>79.336009</ele>
        <time>2021-08-01T11:50:28.252Z</time>
      </trkpt>
      <trkpt lat="53.563004" lon="10.919636">
        <ele>79.407764</ele>
        <time>2021-08-01T11:50:32.228Z</time>
      </trkpt>
      <trkpt lat="53.563281" lon="10.919261">
        <ele>79.679702</ele>
        <time>2021-08-01T11:51:34.256Z</time>
      </trkpt>
      <trkpt lat="53.563346" lon="10.919154">
        <ele>79.749252</ele>
        <time>2021-08-01T11:51:46.264Z</time>
      </trkpt>
      <trkpt lat="53.563408" lon="10.919035">
        <ele>79.821183</ele>
        <time>2021-08-01T11:52:05.254Z</time>
      </trkpt>
      <trkpt lat="53.563464" lon="10.918914">
        <ele>79.816136</ele>
        <time>2021-08-01T11:52:11.189Z</time>
      </trkpt>
      <trkpt lat="53.563516" lon="10.918787">
        <ele>79.799824</ele>
        <time>2021-08-01T11:52:14.193Z</time>
      </trkpt>
      <trkpt lat="53.563575" lon="10.918663">
        <ele>79.783022</ele>
        <time>2021-08-01T11:52:20.252Z</time>
      </trkpt>
      <trkpt lat="53.564002" lon="10.918376">
        <ele>79.701162</ele>
        <time>2021-08-01T11:53:22.249Z</time>
      </trkpt>
      <trkpt lat="53.564112" lon="10.918306">
        <ele>79.680225</ele>
        <time>2021-08-01T11:53:25.243Z</time>
      </trkpt>
      <trkpt lat="53.564201" lon="10.918262">
        <ele>79.663710</ele>
        <time>2021-08-01T11:53:32.264Z</time>
      </trkpt>
      <trkpt lat="53.564289" lon="10.918226">
        <ele>79.647586</ele>
        <time>2021-08-01T11:53:48.230Z</time>
      </trkpt>
      <trkpt lat="53.564396" lon="10.918181">
        <ele>79.627950</ele>
        <time>2021-08-01T11:53:51.250Z</time>
      </trkpt>
      <trkpt lat="53.564484" lon="10.918134">
        <ele>79.611512</ele>
        <time>2021-08-01T11:53:54.255Z</time>
      </trkpt>
      <trkpt lat="53.564584" lon="10.918083">
        <ele>79.592909</ele>
        <time>2021-08-01T11:54:16.252Z</time>
      </trkpt>
      <trkpt lat="53.564674" lon="10.918074">
        <ele>79.576856</ele>
        <time>2021-08-01T11:54:20.242Z</time>
      </trkpt>
      <trkpt lat="53.564780" lon="10.918065">
        <ele>79.557959</ele>
        <time>2021-08-01T11:54:25.254Z</time>
      </trkpt>
      <trkpt lat="53.564876" lon="10.918014">
        <ele>79.540036</ele>
        <time>2021-08-01T11:54:28.247Z</time>
      </trkpt>
      <trkpt lat="53.564991" lon="10.917954">
        <ele>79.518600</ele>
        <time>2021-08-01T11:54:31.262Z</time>
      </trkpt>
      <trkpt lat="53.565091" lon="10.917886">
        <ele>79.571598</ele>
        <time>2021-08-01T11:54:34.253Z</time>
      </trkpt>
      <trkpt lat="53.565180" lon="10.917864">
        <ele>79.664602</ele>
        <time>2021-08-01T11:54:38.244Z</time>
      </trkpt>
      <trkpt lat="53.565278" lon="10.917857">
        <ele>79.766016</ele>
        <time>2021-08-01T11:54:42.255Z</time>
      </trkpt>
      <trkpt lat="53.565380" lon="10.917863">
        <ele>79.871540</ele>
        <time>2021-08-01T11:54:46.235Z</time>
      </trkpt>
      <trkpt lat="53.565493" lon="10.917823">
        <ele>79.990925</ele>
        <time>2021-08-01T11:54:50.260Z</time>
      </trkpt>
      <trkpt lat="53.565601" lon="10.917782">
        <ele>80.105391</ele>
        <time>2021-08-01T11:54:53.239Z</time>
      </trkpt>
      <trkpt lat="53.565716" lon="10.917754">
        <ele>80.225527</ele>
        <time>2021-08-01T11:54:58.262Z</time>
      </trkpt>
      <trkpt lat="53.565812" lon="10.917753">
        <ele>80.324784</ele>
        <time>2021-08-01T11:55:02.226Z</time>
      </trkpt>
      <trkpt lat="53.565927" lon="10.917754">
        <ele>80.443685</ele>
        <time>2021-08-01T11:55:07.237Z</time>
      </trkpt>
      <trkpt lat="53.566024" lon="10.917794">
        <ele>80.546939</ele>
        <time>2021-08-01T11:55:14.229Z</time>
      </trkpt>
      <trkpt lat="53.566121" lon="10.917791">
        <ele>80.647245</ele>
        <time>2021-08-01T11:55:24.242Z</time>
      </trkpt>
      <trkpt lat="53.566216" lon="10.917808">
        <ele>80.746019</ele>
        <time>2021-08-01T11:55:30.264Z</time>
      </trkpt>
      <trkpt lat="53.566310" lon="10.917828">
        <ele>80.843980</ele>
        <time>2021-08-01T11:55:48.248Z</time>
      </trkpt>
      <trkpt lat="53.566406" lon="10.917846">
        <ele>80.943849</ele>
        <time>2021-08-01T11:55:58.241Z</time>
      </trkpt>
      <trkpt lat="53.566500" lon="10.917863">
        <ele>81.041595</ele>
        <time>2021-08-01T11:56:05.230Z</time>
      </trkpt>
      <trkpt lat="53.566595" lon="10.917871">
        <ele>81.139939</ele>
        <time>2021-08-01T11:56:13.228Z</time>
      </trkpt>
      <trkpt lat="53.566697" lon="10.917861">
        <ele>81.245577</ele>
        <time>2021-08-01T11:56:30.251Z</time>
      </trkpt>
      <trkpt lat="53.566787" lon="10.917865">
        <ele>81.338661</ele>
        <time>2021-08-01T11:56:47.203Z</time>
      </trkpt>
      <trkpt lat="53.566879" lon="10.917870">
        <ele>81.385755</ele>
        <time>2021-08-01T11:56:56.183Z</time>
      </trkpt>
      <trkpt lat="53.566983" lon="10.917914">
        <ele>81.413587</ele>
        <time>2021-08-01T11:57:22.206Z</time>
      </trkpt>
      <trkpt lat="53.567070" lon="10.917967">
        <ele>81.437601</ele>
        <time>2021-08-01T11:57:33.170Z</time>
      </trkpt>
      <trkpt lat="53.567156" lon="10.918011">
        <ele>81.460930</ele>
        <time>2021-08-01T11:58:00.185Z</time>
      </trkpt>
      <trkpt lat="53.567252" lon="10.918017">
        <ele>81.485865</ele>
        <time>2021-08-01T11:58:08.185Z</time>
      </trkpt>
      <trkpt lat="53.567350" lon="10.918009">
        <ele>81.511331</ele>
        <time>2021-08-01T11:58:12.252Z</time>
      </trkpt>
      <trkpt lat="53.567503" lon="10.917995">
        <ele>81.551101</ele>
        <time>2021-08-01T11:58:17.220Z</time>
      </trkpt>
      <trkpt lat="53.567798" lon="10.917931">
        <ele>81.628302</ele>
        <time>2021-08-01T11:58:19.218Z</time>
      </trkpt>
      <trkpt lat="53.567897" lon="10.917928">
        <ele>81.654002</ele>
        <time>2021-08-01T11:58:27.232Z</time>
      </trkpt>
      <trkpt lat="53.567995" lon="10.917919">
        <ele>81.679476</ele>
        <time>2021-08-01T11:58:33.208Z</time>
      </trkpt>
      <trkpt lat="53.568092" lon="10.917855">
        <ele>81.706517</ele>
        <time>2021-08-01T11:58:54.251Z</time>
      </trkpt>
      <trkpt lat="53.568187" lon="10.917782">
        <ele>81.733620</ele>
        <time>2021-08-01T11:58:58.253Z</time>
      </trkpt>
      <trkpt lat="53.568296" lon="10.917745">
        <ele>81.762481</ele>
        <time>2021-08-01T11:59:02.241Z</time>
      </trkpt>
      <trkpt lat="53.568388" lon="10.917714">
        <ele>81.786833</ele>
        <time>2021-08-01T11:59:09.229Z</time>
      </trkpt>
      <trkpt lat="53.568493" lon="10.917702">
        <ele>81.814149</ele>
        <time>2021-08-01T11:59:13.242Z</time>
      </trkpt>
      <trkpt lat="53.568593" lon="10.917711">
        <ele>81.818859</ele>
        <time>2021-08-01T11:59:17.249Z</time>
      </trkpt>
      <trkpt lat="53.568703" lon="10.917702">
        <ele>81.681069</ele>
        <time>2021-08-01T11:59:25.264Z</time>
      </trkpt>
      <trkpt lat="53.568795" lon="10.917617">
        <ele>81.549774</ele>
        <time>2021-08-01T11:59:31.241Z</time>
      </trkpt>
      <trkpt lat="53.568894" lon="10.917584">
        <ele>81.423505</ele>
        <time>2021-08-01T11:59:38.228Z</time>
      </trkpt>
      <trkpt lat="53.568981" lon="10.917524">
        <ele>81.305878</ele>
        <time>2021-08-01T11:59:47.244Z</time>
      </trkpt>
      <trkpt lat="53.569078" lon="10.917484">
        <ele>81.180928</ele>
        <time>2021-08-01T11:59:54.244Z</time>
      </trkpt>
      <trkpt lat="53.569160" lon="10.917402">
        <ele>81.061606</ele>
        <time>2021-08-01T12:00:23.249Z</time>
      </trkpt>
      <trkpt lat="53.569174" lon="10.917232">
        <ele>80.934086</ele>
        <time>2021-08-01T12:00:30.247Z</time>
      </trkpt>
      <trkpt lat="53.569199" lon="10.917077">
        <ele>80.814747</ele>
        <time>2021-08-01T12:00:40.233Z</time>
      </trkpt>
      <trkpt lat="53.569244" lon="10.916920">
        <ele>80.685219</ele>
        <time>2021-08-01T12:00:56.219Z</time>
      </trkpt>
      <trkpt lat="53.569263" lon="10.916754">
        <ele>80.559610</ele>
        <time>2021-08-01T12:01:02.228Z</time>
      </trkpt>
      <trkpt lat="53.569290" lon="10.916599">
        <ele>80.439591</ele>
        <time>2021-08-01T12:01:22.237Z</time>
      </trkpt>
      <trkpt lat="53.569287" lon="10.916445">
        <ele>80.325107</ele>
        <time>2021-08-01T12:01:33.202Z</time>
      </trkpt>
      <trkpt lat="53.569283" lon="10.916280">
        <ele>80.202409</ele>
        <time>2021-08-01T12:01:42.221Z</time>
      </trkpt>
      <trkpt lat="53.569248" lon="10.916132">
        <ele>80.084045</ele>
        <time>2021-08-01T12:01:51.245Z</time>
      </trkpt>
      <trkpt lat="53.569212" lon="10.915982">
        <ele>79.963837</ele>
        <time>2021-08-01T12:01:57.228Z</time>
      </trkpt>
      <trkpt lat="53.569159" lon="10.915845">
        <ele>79.842351</ele>
        <time>2021-08-01T12:02:03.218Z</time>
      </trkpt>
      <trkpt lat="53.569122" lon="10.915688">
        <ele>79.716849</ele>
        <time>2021-08-01T12:02:09.235Z</time>
      </trkpt>
      <trkpt lat="53.569094" lon="10.915539">
        <ele>79.600730</ele>
        <time>2021-08-01T12:02:16.242Z</time>
      </trkpt>
      <trkpt lat="53.569072" lon="10.915390">
        <ele>79.564781</ele>
        <time>2021-08-01T12:02:30.218Z</time>
      </trkpt>
      <trkpt lat="53.569043" lon="10.915241">
        <ele>79.539821</ele>
        <time>2021-08-01T12:02:52.227Z</time>
      </trkpt>
      <trkpt lat="53.569011" lon="10.915098">
        <ele>79.515496</ele>
        <time>2021-08-01T12:02:59.234Z</time>
      </trkpt>
      <trkpt lat="53.568979" lon="10.914930">
        <ele>79.487412</ele>
        <time>2021-08-01T12:03:05.252Z</time>
      </trkpt>
      <trkpt lat="53.568944" lon="10.914781">
        <ele>79.461906</ele>
        <time>2021-08-01T12:03:11.225Z</time>
      </trkpt>
      <trkpt lat="53.568910" lon="10.914624">
        <ele>79.435304</ele>
        <time>2021-08-01T12:03:18.248Z</time>
      </trkpt>
      <trkpt lat="53.568876" lon="10.914468">
        <ele>79.408852</ele>
        <time>2021-08-01T12:03:25.250Z</time>
      </trkpt>
      <trkpt lat="53.568862" lon="10.914317">
        <ele>79.384525</ele>
        <time>2021-08-01T12:03:36.243Z</time>
      </trkpt>
      <trkpt lat="53.568829" lon="10.914172">
        <ele>79.359807</ele>
        <time>2021-08-01T12:03:44.240Z</time>
      </trkpt>
      <trkpt lat="53.568782" lon="10.914025">
        <ele>79.333231</ele>
        <time>2021-08-01T12:03:51.253Z</time>
      </trkpt>
      <trkpt lat="53.568751" lon="10.913851">
        <ele>79.304314</ele>
        <time>2021-08-01T12:03:57.254Z</time>
      </trkpt>
      <trkpt lat="53.568707" lon="10.913695">
        <ele>79.276823</ele>
        <time>2021-08-01T12:04:04.265Z</time>
      </trkpt>
      <trkpt lat="53.568680" lon="10.913531">
        <ele>79.249732</ele>
        <time>2021-08-01T12:04:10.264Z</time>
      </trkpt>
      <trkpt lat="53.568658" lon="10.913377">
        <ele>79.224519</ele>
        <time>2021-08-01T12:04:19.237Z</time>
      </trkpt>
      <trkpt lat="53.568638" lon="10.913228">
        <ele>79.200202</ele>
        <time>2021-08-01T12:04:27.230Z</time>
      </trkpt>
      <trkpt lat="53.568591" lon="10.913095">
        <ele>79.175566</ele>
        <time>2021-08-01T12:04:36.227Z</time>
      </trkpt>
      <trkpt lat="53.568539" lon="10.912964">
        <ele>79.150484</ele>
        <time>2021-08-01T12:04:43.255Z</time>
      </trkpt>
      <trkpt lat="53.568484" lon="10.912822">
        <ele>79.123497</ele>
        <time>2021-08-01T12:04:50.241Z</time>
      </trkpt>
      <trkpt lat="53.568427" lon="10.912698">
        <ele>79.099434</ele>
        <time>2021-08-01T12:04:59.244Z</time>
      </trkpt>
      <trkpt lat="53.568367" lon="10.912573">
        <ele>79.078082</ele>
        <time>2021-08-01T12:05:10.241Z</time>
      </trkpt>
      <trkpt lat="53.568292" lon="10.912477">
        <ele>79.057008</ele>
        <time>2021-08-01T12:05:18.243Z</time>
      </trkpt>
      <trkpt lat="53.568223" lon="10.912362">
        <ele>79.035291</ele>
        <time>2021-08-01T12:05:32.246Z</time>
      </trkpt>
      <trkpt lat="53.568124" lon="10.912256">
        <ele>79.009047</ele>
        <time>2021-08-01T12:05:46.236Z</time>
      </trkpt>
      <trkpt lat="53.568033" lon="10.912145">
        <ele>78.983911</ele>
        <time>2021-08-01T12:05:50.251Z</time>
      </trkpt>
      <trkpt lat="53.567950" lon="10.912059">
        <ele>78.962111</ele>
        <time>2021-08-01T12:05:54.246Z</time>
      </trkpt>
      <trkpt lat="53.567841" lon="10.911984">
        <ele>78.935771</ele>
        <time>2021-08-01T12:06:03.256Z</time>
      </trkpt>
      <trkpt lat="53.567756" lon="10.911934">
        <ele>78.915630</ele>
        <time>2021-08-01T12:06:08.232Z</time>
      </trkpt>
      <trkpt lat="53.567664" lon="10.911867">
        <ele>78.893207</ele>
        <time>2021-08-01T12:06:12.223Z</time>
      </trkpt>
      <trkpt lat="53.567591" lon="10.911775">
        <ele>78.872810</ele>
        <time>2021-08-01T12:06:17.250Z</time>
      </trkpt>
      <trkpt lat="53.567497" lon="10.911697">
        <ele>78.849368</ele>
        <time>2021-08-01T12:06:24.252Z</time>
      </trkpt>
      <trkpt lat="53.567407" lon="10.911638">
        <ele>78.827764</ele>
        <time>2021-08-01T12:06:33.249Z</time>
      </trkpt>
      <trkpt lat="53.567322" lon="10.911565">
        <ele>78.806419</ele>
        <time>2021-08-01T12:06:39.244Z</time>
      </trkpt>
      <trkpt lat="53.567227" lon="10.911492">
        <ele>78.783060</ele>
        <time>2021-08-01T12:06:46.246Z</time>
      </trkpt>
      <trkpt lat="53.567130" lon="10.911409">
        <ele>78.758720</ele>
        <time>2021-08-01T12:07:01.229Z</time>
      </trkpt>
      <trkpt lat="53.567042" lon="10.911364">
        <ele>78.738147</ele>
        <time>2021-08-01T12:07:06.243Z</time>
      </trkpt>
      <trkpt lat="53.566964" lon="10.911286">
        <ele>78.717854</ele>
        <time>2021-08-01T12:07:14.241Z</time>
      </trkpt>
      <trkpt lat="53.566879" lon="10.911231">
        <ele>78.701887</ele>
        <time>2021-08-01T12:07:23.234Z</time>
      </trkpt>
      <trkpt lat="53.566794" lon="10.911160">
        <ele>78.703305</ele>
        <time>2021-08-01T12:07:29.239Z</time>
      </trkpt>
      <trkpt lat="53.566707" lon="10.911115">
        <ele>78.704665</ele>
        <time>2021-08-01T12:07:36.236Z</time>
      </trkpt>
      <trkpt lat="53.566624" lon="10.911014">
        <ele>78.706196</ele>
        <time>2021-08-01T12:07:43.241Z</time>
      </trkpt>
      <trkpt lat="53.566542" lon="10.910943">
        <ele>78.707574</ele>
        <time>2021-08-01T12:07:49.232Z</time>
      </trkpt>
      <trkpt lat="53.566460" lon="10.910878">
        <ele>78.708928</ele>
        <time>2021-08-01T12:07:55.222Z</time>
      </trkpt>
      <trkpt lat="53.566379" lon="10.910805">
        <ele>78.710301</ele>
        <time>2021-08-01T12:08:03.231Z</time>
      </trkpt>
      <trkpt lat="53.566288" lon="10.910730">
        <ele>78.711815</ele>
        <time>2021-08-01T12:08:10.239Z</time>
      </trkpt>
      <trkpt lat="53.566201" lon="10.910687">
        <ele>78.713170</ele>
        <time>2021-08-01T12:08:18.237Z</time>
      </trkpt>
      <trkpt lat="53.566125" lon="10.910593">
        <ele>78.714579</ele>
        <time>2021-08-01T12:08:24.247Z</time>
      </trkpt>
      <trkpt lat="53.566040" lon="10.910522">
        <ele>78.715997</ele>
        <time>2021-08-01T12:08:30.242Z</time>
      </trkpt>
      <trkpt lat="53.565959" lon="10.910449">
        <ele>78.717370</ele>
        <time>2021-08-01T12:08:39.246Z</time>
      </trkpt>
      <trkpt lat="53.565873" lon="10.910369">
        <ele>78.718839</ele>
        <time>2021-08-01T12:08:46.221Z</time>
      </trkpt>
      <trkpt lat="53.565785" lon="10.910295">
        <ele>78.720309</ele>
        <time>2021-08-01T12:08:53.252Z</time>
      </trkpt>
      <trkpt lat="53.565703" lon="10.910220">
        <ele>78.721703</ele>
        <time>2021-08-01T12:09:02.241Z</time>
      </trkpt>
      <trkpt lat="53.565622" lon="10.910155">
        <ele>78.723044</ele>
        <time>2021-08-01T12:09:11.240Z</time>
      </trkpt>
      <trkpt lat="53.565535" lon="10.910076">
        <ele>78.724521</ele>
        <time>2021-08-01T12:09:19.224Z</time>
      </trkpt>
      <trkpt lat="53.565450" lon="10.910001">
        <ele>78.725955</ele>
        <time>2021-08-01T12:09:26.236Z</time>
      </trkpt>
      <trkpt lat="53.565361" lon="10.909929">
        <ele>78.727431</ele>
        <time>2021-08-01T12:09:34.228Z</time>
      </trkpt>
      <trkpt lat="53.565274" lon="10.909856">
        <ele>78.745961</ele>
        <time>2021-08-01T12:09:41.227Z</time>
      </trkpt>
      <trkpt lat="53.565190" lon="10.909792">
        <ele>78.807259</ele>
        <time>2021-08-01T12:09:48.248Z</time>
      </trkpt>
      <trkpt lat="53.565102" lon="10.909750">
        <ele>78.868069</ele>
        <time>2021-08-01T12:09:53.239Z</time>
      </trkpt>
      <trkpt lat="53.565020" lon="10.909663">
        <ele>78.932507</ele>
        <time>2021-08-01T12:10:02.239Z</time>
      </trkpt>
      <trkpt lat="53.564936" lon="10.909595">
        <ele>78.994472</ele>
        <time>2021-08-01T12:10:10.245Z</time>
      </trkpt>
      <trkpt lat="53.564834" lon="10.909548">
        <ele>79.064779</ele>
        <time>2021-08-01T12:10:18.234Z</time>
      </trkpt>
      <trkpt lat="53.564750" lon="10.909484">
        <ele>79.126077</ele>
        <time>2021-08-01T12:10:25.248Z</time>
      </trkpt>
      <trkpt lat="53.564672" lon="10.909402">
        <ele>79.187213</ele>
        <time>2021-08-01T12:10:33.256Z</time>
      </trkpt>
      <trkpt lat="53.564587" lon="10.909319">
        <ele>79.252540</ele>
        <time>2021-08-01T12:10:41.261Z</time>
      </trkpt>
      <trkpt lat="53.564494" lon="10.909248">
        <ele>79.320428</ele>
        <time>2021-08-01T12:10:49.234Z</time>
      </trkpt>
      <trkpt lat="53.564408" lon="10.909171">
        <ele>79.385186</ele>
        <time>2021-08-01T12:10:55.236Z</time>
      </trkpt>
      <trkpt lat="53.564324" lon="10.909094">
        <ele>79.448772</ele>
        <time>2021-08-01T12:11:02.240Z</time>
      </trkpt>
      <trkpt lat="53.564240" lon="10.909026">
        <ele>79.510738</ele>
        <time>2021-08-01T12:11:10.220Z</time>
      </trkpt>
      <trkpt lat="53.564154" lon="10.908953">
        <ele>79.574769</ele>
        <time>2021-08-01T12:11:17.236Z</time>
      </trkpt>
      <trkpt lat="53.564064" lon="10.908883">
        <ele>79.640680</ele>
        <time>2021-08-01T12:11:26.239Z</time>
      </trkpt>
      <trkpt lat="53.563971" lon="10.908822">
        <ele>79.707036</ele>
        <time>2021-08-01T12:11:32.258Z</time>
      </trkpt>
      <trkpt lat="53.563879" lon="10.908748">
        <ele>79.774823</ele>
        <time>2021-08-01T12:11:38.246Z</time>
      </trkpt>
      <trkpt lat="53.563802" lon="10.908653">
        <ele>79.838288</ele>
        <time>2021-08-01T12:11:45.239Z</time>
      </trkpt>
      <trkpt lat="53.563729" lon="10.908549">
        <ele>79.901864</ele>
        <time>2021-08-01T12:11:55.251Z</time>
      </trkpt>
      <trkpt lat="53.563643" lon="10.908473">
        <ele>79.881749</ele>
        <time>2021-08-01T12:12:05.230Z</time>
      </trkpt>
      <trkpt lat="53.563523" lon="10.908580">
        <ele>79.790594</ele>
        <time>2021-08-01T12:12:42.255Z</time>
      </trkpt>
      <trkpt lat="53.563445" lon="10.908682">
        <ele>79.724294</ele>
        <time>2021-08-01T12:12:50.262Z</time>
      </trkpt>
      <trkpt lat="53.563358" lon="10.908746">
        <ele>79.660560</ele>
        <time>2021-08-01T12:12:57.232Z</time>
      </trkpt>
      <trkpt lat="53.563263" lon="10.908774">
        <ele>79.595817</ele>
        <time>2021-08-01T12:13:05.240Z</time>
      </trkpt>
      <trkpt lat="53.563167" lon="10.908834">
        <ele>79.527076</ele>
        <time>2021-08-01T12:13:13.237Z</time>
      </trkpt>
      <trkpt lat="53.563070" lon="10.908862">
        <ele>79.461010</ele>
        <time>2021-08-01T12:13:21.231Z</time>
      </trkpt>
      <trkpt lat="53.562986" lon="10.908787">
        <ele>79.397182</ele>
        <time>2021-08-01T12:13:32.250Z</time>
      </trkpt>
      <trkpt lat="53.562898" lon="10.908729">
        <ele>79.333743</ele>
        <time>2021-08-01T12:13:49.243Z</time>
      </trkpt>
      <trkpt lat="53.562714" lon="10.908685">
        <ele>79.208984</ele>
        <time>2021-08-01T12:15:04.246Z</time>
      </trkpt>
      <trkpt lat="53.562620" lon="10.908741">
        <ele>79.142048</ele>
        <time>2021-08-01T12:15:41.237Z</time>
      </trkpt>
      <trkpt lat="53.562543" lon="10.908826">
        <ele>79.080239</ele>
        <time>2021-08-01T12:15:48.215Z</time>
      </trkpt>
      <trkpt lat="53.562468" lon="10.908910">
        <ele>79.019769</ele>
        <time>2021-08-01T12:15:55.231Z</time>
      </trkpt>
      <trkpt lat="53.562393" lon="10.909017">
        <ele>78.953777</ele>
        <time>2021-08-01T12:16:03.237Z</time>
      </trkpt>
      <trkpt lat="53.562334" lon="10.909144">
        <ele>78.889490</ele>
        <time>2021-08-01T12:16:10.218Z</time>
      </trkpt>
      <trkpt lat="53.562263" lon="10.909272">
        <ele>78.819659</ele>
        <time>2021-08-01T12:16:18.240Z</time>
      </trkpt>
      <trkpt lat="53.562205" lon="10.909413">
        <ele>78.751274</ele>
        <time>2021-08-01T12:16:26.227Z</time>
      </trkpt>
      <trkpt lat="53.562141" lon="10.909552">
        <ele>78.723743</ele>
        <time>2021-08-01T12:16:34.218Z</time>
      </trkpt>
      <trkpt lat="53.562086" lon="10.909685">
        <ele>78.736174</ele>
        <time>2021-08-01T12:16:42.218Z</time>
      </trkpt>
      <trkpt lat="53.562075" lon="10.909852">
        <ele>78.749062</ele>
        <time>2021-08-01T12:16:53.232Z</time>
      </trkpt>
      <trkpt lat="53.562031" lon="10.909993">
        <ele>78.761280</ele>
        <time>2021-08-01T12:16:59.242Z</time>
      </trkpt>
      <trkpt lat="53.561979" lon="10.910142">
        <ele>78.774537</ele>
        <time>2021-08-01T12:17:07.230Z</time>
      </trkpt>
      <trkpt lat="53.561922" lon="10.910300">
        <ele>78.788717</ele>
        <time>2021-08-01T12:17:14.220Z</time>
      </trkpt>
      <trkpt lat="53.561869" lon="10.910440">
        <ele>78.801452</ele>
        <time>2021-08-01T12:17:20.250Z</time>
      </trkpt>
      <trkpt lat="53.561800" lon="10.910565">
        <ele>78.814542</ele>
        <time>2021-08-01T12:17:28.239Z</time>
      </trkpt>
      <trkpt lat="53.561752" lon="10.910708">
        <ele>78.827141</ele>
        <time>2021-08-01T12:17:36.239Z</time>
      </trkpt>
      <trkpt lat="53.561709" lon="10.910841">
        <ele>78.838757</ele>
        <time>2021-08-01T12:17:42.255Z</time>
      </trkpt>
      <trkpt lat="53.561688" lon="10.910996">
        <ele>78.850952</ele>
        <time>2021-08-01T12:17:54.249Z</time>
      </trkpt>
      <trkpt lat="53.561628" lon="10.911113">
        <ele>78.862809</ele>
        <time>2021-08-01T12:18:04.232Z</time>
      </trkpt>
      <trkpt lat="53.561542" lon="10.911186">
        <ele>78.875248</ele>
        <time>2021-08-01T12:18:23.232Z</time>
      </trkpt>
      <trkpt lat="53.561535" lon="10.911341">
        <ele>78.887172</ele>
        <time>2021-08-01T12:18:34.235Z</time>
      </trkpt>
      <trkpt lat="53.561452" lon="10.911417">
        <ele>78.899374</ele>
        <time>2021-08-01T12:18:48.231Z</time>
      </trkpt>
      <trkpt lat="53.561428" lon="10.911577">
        <ele>78.912033</ele>
        <time>2021-08-01T12:18:56.234Z</time>
      </trkpt>
      <trkpt lat="53.561384" lon="10.911716">
        <ele>78.924115</ele>
        <time>2021-08-01T12:19:04.217Z</time>
      </trkpt>
      <trkpt lat="53.561355" lon="10.911870">
        <ele>78.936508</ele>
        <time>2021-08-01T12:19:21.225Z</time>
      </trkpt>
      <trkpt lat="53.561356" lon="10.912037">
        <ele>78.949253</ele>
        <time>2021-08-01T12:19:34.228Z</time>
      </trkpt>
      <trkpt lat="53.561332" lon="10.912197">
        <ele>78.956652</ele>
        <time>2021-08-01T12:19:49.237Z</time>
      </trkpt>
      <trkpt lat="53.561327" lon="10.912351">
        <ele>78.963567</ele>
        <time>2021-08-01T12:19:55.229Z</time>
      </trkpt>
      <trkpt lat="53.561323" lon="10.912509">
        <ele>78.970658</ele>
        <time>2021-08-01T12:20:01.239Z</time>
      </trkpt>
      <trkpt lat="53.561346" lon="10.912657">
        <ele>78.977517</ele>
        <time>2021-08-01T12:20:08.232Z</time>
      </trkpt>
      <trkpt lat="53.561419" lon="10.913421">
        <ele>79.012213</ele>
        <time>2021-08-01T12:27:06.231Z</time>
      </trkpt>
      <trkpt lat="53.561444" lon="10.913580">
        <ele>79.019588</ele>
        <time>2021-08-01T12:27:13.242Z</time>
      </trkpt>
      <trkpt lat="53.561493" lon="10.913727">
        <ele>79.027146</ele>
        <time>2021-08-01T12:27:21.231Z</time>
      </trkpt>
      <trkpt lat="53.561531" lon="10.913870">
        <ele>79.034170</ele>
        <time>2021-08-01T12:27:31.226Z</time>
      </trkpt>
      <trkpt lat="53.561558" lon="10.914018">
        <ele>79.041112</ele>
        <time>2021-08-01T12:27:40.213Z</time>
      </trkpt>
      <trkpt lat="53.561592" lon="10.914170">
        <ele>79.048394</ele>
        <time>2021-08-01T12:27:48.233Z</time>
      </trkpt>
      <trkpt lat="53.561593" lon="10.914328">
        <ele>79.055479</ele>
        <time>2021-08-01T12:27:55.245Z</time>
      </trkpt>
      <trkpt lat="53.561571" lon="10.914490">
        <ele>79.062930</ele>
        <time>2021-08-01T12:28:04.234Z</time>
      </trkpt>
      <trkpt lat="53.561547" lon="10.914642">
        <ele>79.069982</ele>
        <time>2021-08-01T12:28:13.243Z</time>
      </trkpt>
      <trkpt lat="53.561498" lon="10.914770">
        <ele>79.076809</ele>
        <time>2021-08-01T12:28:22.243Z</time>
      </trkpt>
      <trkpt lat="53.561440" lon="10.914888">
        <ele>79.083677</ele>
        <time>2021-08-01T12:28:30.232Z</time>
      </trkpt>
      <trkpt lat="53.561377" lon="10.915016">
        <ele>79.043561</ele>
        <time>2021-08-01T12:28:38.234Z</time>
      </trkpt>
      <trkpt lat="53.561314" lon="10.915141">
        <ele>78.994457</ele>
        <time>2021-08-01T12:28:46.233Z</time>
      </trkpt>
      <trkpt lat="53.561260" lon="10.915267">
        <ele>78.947917</ele>
        <time>2021-08-01T12:28:54.234Z</time>
      </trkpt>
      <trkpt lat="53.561204" lon="10.915387">
        <ele>78.902206</ele>
        <time>2021-08-01T12:29:04.220Z</time>
      </trkpt>
      <trkpt lat="53.561183" lon="10.915546">
        <ele>78.853417</ele>
        <time>2021-08-01T12:29:12.210Z</time>
      </trkpt>
      <trkpt lat="53.561148" lon="10.915686">
        <ele>78.807920</ele>
        <time>2021-08-01T12:29:22.219Z</time>
      </trkpt>
      <trkpt lat="53.561153" lon="10.915843">
        <ele>78.760826</ele>
        <time>2021-08-01T12:29:28.232Z</time>
      </trkpt>
      <trkpt lat="53.561171" lon="10.915993">
        <ele>78.714988</ele>
        <time>2021-08-01T12:29:41.220Z</time>
      </trkpt>
      <trkpt lat="53.561178" lon="10.916146">
        <ele>78.669024</ele>
        <time>2021-08-01T12:29:52.235Z</time>
      </trkpt>
      <trkpt lat="53.561177" lon="10.916310">
        <ele>78.619898</ele>
        <time>2021-08-01T12:30:00.239Z</time>
      </trkpt>
      <trkpt lat="53.561131" lon="10.916507">
        <ele>78.556494</ele>
        <time>2021-08-01T12:31:11.178Z</time>
      </trkpt>
      <trkpt lat="53.561107" lon="10.916700">
        <ele>78.497431</ele>
        <time>2021-08-01T12:31:44.200Z</time>
      </trkpt>
      <trkpt lat="53.561085" lon="10.916852">
        <ele>78.450570</ele>
        <time>2021-08-01T12:31:50.209Z</time>
      </trkpt>
      <trkpt lat="53.561055" lon="10.916995">
        <ele>78.405144</ele>
        <time>2021-08-01T12:31:59.228Z</time>
      </trkpt>
      <trkpt lat="53.560998" lon="10.917131">
        <ele>78.355287</ele>
        <time>2021-08-01T12:32:06.223Z</time>
      </trkpt>
      <trkpt lat="53.560955" lon="10.917277">
        <ele>78.306474</ele>
        <time>2021-08-01T12:32:16.205Z</time>
      </trkpt>
      <trkpt lat="53.560911" lon="10.917439">
        <ele>78.253117</ele>
        <time>2021-08-01T12:32:24.231Z</time>
      </trkpt>
      <trkpt lat="53.560854" lon="10.917568">
        <ele>78.204958</ele>
        <time>2021-08-01T12:32:34.211Z</time>
      </trkpt>
      <trkpt lat="53.560805" lon="10.917710">
        <ele>78.181805</ele>
        <time>2021-08-01T12:32:43.213Z</time>
      </trkpt>
      <trkpt lat="53.560753" lon="10.917838">
        <ele>78.190015</ele>
        <time>2021-08-01T12:32:52.234Z</time>
      </trkpt>
      <trkpt lat="53.560694" lon="10.917961">
        <ele>78.198385</ele>
        <time>2021-08-01T12:33:00.225Z</time>
      </trkpt>
      <trkpt lat="53.560620" lon="10.918073">
        <ele>78.207254</ele>
        <time>2021-08-01T12:33:10.208Z</time>
      </trkpt>
      <trkpt lat="53.560553" lon="10.918189">
        <ele>78.215820</ele>
        <time>2021-08-01T12:33:17.210Z</time>
      </trkpt>
      <trkpt lat="53.560463" lon="10.918238">
        <ele>78.224251</ele>
        <time>2021-08-01T12:33:33.214Z</time>
      </trkpt>
      <trkpt lat="53.560409" lon="10.918362">
        <ele>78.232392</ele>
        <time>2021-08-01T12:33:38.224Z</time>
      </trkpt>
      <trkpt lat="53.560342" lon="10.918487">
        <ele>78.241306</ele>
        <time>2021-08-01T12:33:44.213Z</time>
      </trkpt>
      <trkpt lat="53.560277" lon="10.918597">
        <ele>78.249520</ele>
        <time>2021-08-01T12:33:49.217Z</time>
      </trkpt>
      <trkpt lat="53.560197" lon="10.918675">
        <ele>78.257760</ele>
        <time>2021-08-01T12:33:58.221Z</time>
      </trkpt>
      <trkpt lat="53.560111" lon="10.918747">
        <ele>78.266321</ele>
        <time>2021-08-01T12:34:09.203Z</time>
      </trkpt>
      <trkpt lat="53.560031" lon="10.918836">
        <ele>78.274868</ele>
        <time>2021-08-01T12:34:17.202Z</time>
      </trkpt>
      <trkpt lat="53.559941" lon="10.918913">
        <ele>78.283867</ele>
        <time>2021-08-01T12:34:52.191Z</time>
      </trkpt>
      <trkpt lat="53.559854" lon="10.918993">
        <ele>78.292702</ele>
        <time>2021-08-01T12:35:01.206Z</time>
      </trkpt>
      <trkpt lat="53.559779" lon="10.919080">
        <ele>78.300821</ele>
        <time>2021-08-01T12:35:08.218Z</time>
      </trkpt>
      <trkpt lat="53.559703" lon="10.919187">
        <ele>78.309651</ele>
        <time>2021-08-01T12:35:15.221Z</time>
      </trkpt>
      <trkpt lat="53.559624" lon="10.919263">
        <ele>78.317761</ele>
        <time>2021-08-01T12:35:21.207Z</time>
      </trkpt>
      <trkpt lat="53.559544" lon="10.919336">
        <ele>78.325872</ele>
        <time>2021-08-01T12:35:30.206Z</time>
      </trkpt>
      <trkpt lat="53.559481" lon="10.919452">
        <ele>78.334194</ele>
        <time>2021-08-01T12:35:40.214Z</time>
      </trkpt>
      <trkpt lat="53.559427" lon="10.919600">
        <ele>78.355250</ele>
        <time>2021-08-01T12:35:53.229Z</time>
      </trkpt>
      <trkpt lat="53.559380" lon="10.919772">
        <ele>78.388235</ele>
        <time>2021-08-01T12:35:59.223Z</time>
      </trkpt>
      <trkpt lat="53.559331" lon="10.919900">
        <ele>78.414765</ele>
        <time>2021-08-01T12:36:04.237Z</time>
      </trkpt>
      <trkpt lat="53.559265" lon="10.920064">
        <ele>78.449277</ele>
        <time>2021-08-01T12:36:18.211Z</time>
      </trkpt>
      <trkpt lat="53.559217" lon="10.920212">
        <ele>78.478655</ele>
        <time>2021-08-01T12:36:23.206Z</time>
      </trkpt>
      <trkpt lat="53.559181" lon="10.920371">
        <ele>78.508301</ele>
        <time>2021-08-01T12:36:30.204Z</time>
      </trkpt>
      <trkpt lat="53.559100" lon="10.920465">
        <ele>78.537156</ele>
        <time>2021-08-01T12:36:38.219Z</time>
      </trkpt>
      <trkpt lat="53.559007" lon="10.920431">
        <ele>78.565070</ele>
        <time>2021-08-01T12:36:46.226Z</time>
      </trkpt>
      <trkpt lat="53.558916" lon="10.920418">
        <ele>78.591856</ele>
        <time>2021-08-01T12:36:53.221Z</time>
      </trkpt>
      <trkpt lat="53.558818" lon="10.920388">
        <ele>78.621072</ele>
        <time>2021-08-01T12:37:01.219Z</time>
      </trkpt>
      <trkpt lat="53.558726" lon="10.920399">
        <ele>78.648124</ele>
        <time>2021-08-01T12:37:10.228Z</time>
      </trkpt>
      <trkpt lat="53.558630" lon="10.920387">
        <ele>78.676359</ele>
        <time>2021-08-01T12:37:17.205Z</time>
      </trkpt>
      <trkpt lat="53.558529" lon="10.920381">
        <ele>78.706001</ele>
        <time>2021-08-01T12:37:24.225Z</time>
      </trkpt>
      <trkpt lat="53.558435" lon="10.920366">
        <ele>78.733696</ele>
        <time>2021-08-01T12:37:32.216Z</time>
      </trkpt>
      <trkpt lat="53.558343" lon="10.920358">
        <ele>78.760716</ele>
        <time>2021-08-01T12:37:44.219Z</time>
      </trkpt>
      <trkpt lat="53.558250" lon="10.920301">
        <ele>78.789745</ele>
        <time>2021-08-01T12:37:53.220Z</time>
      </trkpt>
      <trkpt lat="53.558164" lon="10.920237">
        <ele>78.817324</ele>
        <time>2021-08-01T12:38:05.217Z</time>
      </trkpt>
      <trkpt lat="53.558066" lon="10.920193">
        <ele>78.847073</ele>
        <time>2021-08-01T12:38:15.213Z</time>
      </trkpt>
      <trkpt lat="53.557975" lon="10.920112">
        <ele>78.864810</ele>
        <time>2021-08-01T12:38:20.216Z</time>
      </trkpt>
      <trkpt lat="53.557877" lon="10.920054">
        <ele>78.862277</ele>
        <time>2021-08-01T12:38:26.213Z</time>
      </trkpt>
      <trkpt lat="53.557782" lon="10.919993">
        <ele>78.859798</ele>
        <time>2021-08-01T12:38:33.225Z</time>
      </trkpt>
      <trkpt lat="53.557694" lon="10.919939">
        <ele>78.857514</ele>
        <time>2021-08-01T12:38:44.234Z</time>
      </trkpt>
      <trkpt lat="53.557603" lon="10.919871">
        <ele>78.855087</ele>
        <time>2021-08-01T12:38:54.208Z</time>
      </trkpt>
      <trkpt lat="53.557515" lon="10.919793">
        <ele>78.852662</ele>
        <time>2021-08-01T12:39:02.203Z</time>
      </trkpt>
      <trkpt lat="53.557426" lon="10.919735">
        <ele>78.850335</ele>
        <time>2021-08-01T12:39:11.214Z</time>
      </trkpt>
      <trkpt lat="53.557344" lon="10.919645">
        <ele>78.847948</ele>
        <time>2021-08-01T12:39:34.213Z</time>
      </trkpt>
      <trkpt lat="53.557245" lon="10.919591">
        <ele>78.845410</ele>
        <time>2021-08-01T12:39:42.233Z</time>
      </trkpt>
      <trkpt lat="53.557154" lon="10.919559">
        <ele>78.843144</ele>
        <time>2021-08-01T12:39:47.229Z</time>
      </trkpt>
      <trkpt lat="53.557084" lon="10.919454">
        <ele>78.840858</ele>
        <time>2021-08-01T12:39:54.205Z</time>
      </trkpt>
      <trkpt lat="53.557015" lon="10.919339">
        <ele>78.838490</ele>
        <time>2021-08-01T12:40:03.221Z</time>
      </trkpt>
      <trkpt lat="53.556925" lon="10.919274">
        <ele>78.836102</ele>
        <time>2021-08-01T12:40:09.232Z</time>
      </trkpt>
      <trkpt lat="53.556838" lon="10.919212">
        <ele>78.833799</ele>
        <time>2021-08-01T12:40:18.208Z</time>
      </trkpt>
      <trkpt lat="53.556751" lon="10.919150">
        <ele>78.831495</ele>
        <time>2021-08-01T12:40:29.209Z</time>
      </trkpt>
      <trkpt lat="53.556665" lon="10.919093">
        <ele>78.829241</ele>
        <time>2021-08-01T12:40:37.219Z</time>
      </trkpt>
      <trkpt lat="53.556578" lon="10.919005">
        <ele>78.826767</ele>
        <time>2021-08-01T12:40:46.215Z</time>
      </trkpt>
      <trkpt lat="53.556484" lon="10.918928">
        <ele>78.824218</ele>
        <time>2021-08-01T12:40:52.238Z</time>
      </trkpt>
      <trkpt lat="53.556403" lon="10.918835">
        <ele>78.818701</ele>
        <time>2021-08-01T12:41:03.210Z</time>
      </trkpt>
      <trkpt lat="53.556348" lon="10.918715">
        <ele>78.733471</ele>
        <time>2021-08-01T12:41:31.244Z</time>
      </trkpt>
      <trkpt lat="53.556311" lon="10.918968">
        <ele>78.586955</ele>
        <time>2021-08-01T12:42:03.232Z</time>
      </trkpt>
      <trkpt lat="53.556283" lon="10.919119">
        <ele>78.498003</ele>
        <time>2021-08-01T12:42:09.231Z</time>
      </trkpt>
      <trkpt lat="53.556224" lon="10.918890">
        <ele>78.357641</ele>
        <time>2021-08-01T12:54:23.210Z</time>
      </trkpt>
      <trkpt lat="53.556223" lon="10.918734">
        <ele>78.269913</ele>
        <time>2021-08-01T12:54:27.210Z</time>
      </trkpt>
      <trkpt lat="53.556171" lon="10.918610">
        <ele>78.184560</ele>
        <time>2021-08-01T12:54:32.213Z</time>
      </trkpt>
      <trkpt lat="53.556075" lon="10.918585">
        <ele>78.092603</ele>
        <time>2021-08-01T12:54:40.224Z</time>
      </trkpt>
      <trkpt lat="53.555983" lon="10.918537">
        <ele>78.001427</ele>
        <time>2021-08-01T12:54:47.215Z</time>
      </trkpt>
      <trkpt lat="53.555882" lon="10.918551">
        <ele>77.905495</ele>
        <time>2021-08-01T12:54:53.231Z</time>
      </trkpt>
      <trkpt lat="53.555788" lon="10.918501">
        <ele>77.812176</ele>
        <time>2021-08-01T12:55:02.216Z</time>
      </trkpt>
      <trkpt lat="53.555678" lon="10.918455">
        <ele>77.704883</ele>
        <time>2021-08-01T12:55:10.219Z</time>
      </trkpt>
      <trkpt lat="53.555578" lon="10.918454">
        <ele>77.610219</ele>
        <time>2021-08-01T12:55:16.223Z</time>
      </trkpt>
      <trkpt lat="53.555482" lon="10.918431">
        <ele>77.518427</ele>
        <time>2021-08-01T12:55:25.229Z</time>
      </trkpt>
      <trkpt lat="53.555386" lon="10.918426">
        <ele>77.427508</ele>
        <time>2021-08-01T12:55:32.215Z</time>
      </trkpt>
      <trkpt lat="53.555287" lon="10.918454">
        <ele>77.332479</ele>
        <time>2021-08-01T12:55:38.225Z</time>
      </trkpt>
      <trkpt lat="53.555191" lon="10.918433">
        <ele>77.240839</ele>
        <time>2021-08-01T12:55:44.222Z</time>
      </trkpt>
      <trkpt lat="53.555095" lon="10.918457">
        <ele>77.148967</ele>
        <time>2021-08-01T12:55:50.210Z</time>
      </trkpt>
      <trkpt lat="53.555000" lon="10.918411">
        <ele>77.256338</ele>
        <time>2021-08-01T12:56:00.193Z</time>
      </trkpt>
      <trkpt lat="53.554922" lon="10.918334">
        <ele>77.439990</ele>
        <time>2021-08-01T12:56:09.223Z</time>
      </trkpt>
      <trkpt lat="53.554867" lon="10.918197">
        <ele>77.639492</ele>
        <time>2021-08-01T12:56:16.228Z</time>
      </trkpt>
      <trkpt lat="53.554834" lon="10.918028">
        <ele>77.854130</ele>
        <time>2021-08-01T12:56:26.211Z</time>
      </trkpt>
      <trkpt lat="53.554744" lon="10.917938">
        <ele>78.066744</ele>
        <time>2021-08-01T12:56:33.225Z</time>
      </trkpt>
      <trkpt lat="53.554657" lon="10.917985">
        <ele>78.252320</ele>
        <time>2021-08-01T12:56:39.228Z</time>
      </trkpt>
      <trkpt lat="53.554563" lon="10.917963">
        <ele>78.445073</ele>
        <time>2021-08-01T12:56:45.212Z</time>
      </trkpt>
      <trkpt lat="53.554522" lon="10.917817">
        <ele>78.639919</ele>
        <time>2021-08-01T12:56:51.231Z</time>
      </trkpt>
      <trkpt lat="53.554485" lon="10.917635">
        <ele>78.872014</ele>
        <time>2021-08-01T12:57:16.213Z</time>
      </trkpt>
      <trkpt lat="53.554440" lon="10.917501">
        <ele>79.057736</ele>
        <time>2021-08-01T12:57:21.219Z</time>
      </trkpt>
      <trkpt lat="53.554345" lon="10.917408">
        <ele>79.280940</ele>
        <time>2021-08-01T12:57:27.200Z</time>
      </trkpt>
      <trkpt lat="53.554257" lon="10.917320">
        <ele>79.488829</ele>
        <time>2021-08-01T12:57:34.204Z</time>
      </trkpt>
      <trkpt lat="53.554153" lon="10.917272">
        <ele>79.707852</ele>
        <time>2021-08-01T12:57:38.233Z</time>
      </trkpt>
      <trkpt lat="53.554057" lon="10.917282">
        <ele>79.903204</ele>
        <time>2021-08-01T12:57:45.224Z</time>
      </trkpt>
      <trkpt lat="53.553967" lon="10.917231">
        <ele>80.096076</ele>
        <time>2021-08-01T12:58:00.218Z</time>
      </trkpt>
      <trkpt lat="53.553866" lon="10.917242">
        <ele>80.301638</ele>
        <time>2021-08-01T12:58:08.203Z</time>
      </trkpt>
      <trkpt lat="53.553766" lon="10.917229">
        <ele>80.505346</ele>
        <time>2021-08-01T12:58:15.210Z</time>
      </trkpt>
      <trkpt lat="53.553662" lon="10.917206">
        <ele>80.718388</ele>
        <time>2021-08-01T12:58:22.204Z</time>
      </trkpt>
      <trkpt lat="53.553569" lon="10.917171">
        <ele>80.772369</ele>
        <time>2021-08-01T12:58:28.215Z</time>
      </trkpt>
      <trkpt lat="53.553476" lon="10.917167">
        <ele>80.772369</ele>
        <time>2021-08-01T12:58:34.205Z</time>
      </trkpt>
      <trkpt lat="53.553382" lon="10.917185">
        <ele>80.772369</ele>
        <time>2021-08-01T12:58:41.215Z</time>
      </trkpt>
      <trkpt lat="53.553283" lon="10.917205">
        <ele>80.772369</ele>
        <time>2021-08-01T12:58:48.219Z</time>
      </trkpt>
      <trkpt lat="53.553181" lon="10.917193">
        <ele>80.772369</ele>
        <time>2021-08-01T12:58:55.223Z</time>
      </trkpt>
      <trkpt lat="53.553088" lon="10.917193">
        <ele>80.772369</ele>
        <time>2021-08-01T12:59:01.217Z</time>
      </trkpt>
      <trkpt lat="53.552991" lon="10.917205">
        <ele>80.772369</ele>
        <time>2021-08-01T12:59:09.202Z</time>
      </trkpt>
      <trkpt lat="53.552892" lon="10.917202">
        <ele>80.772369</ele>
        <time>2021-08-01T12:59:17.224Z</time>
      </trkpt>
      <trkpt lat="53.552792" lon="10.917210">
        <ele>80.772369</ele>
        <time>2021-08-01T12:59:23.213Z</time>
      </trkpt>
      <trkpt lat="53.552699" lon="10.917215">
        <ele>80.772369</ele>
        <time>2021-08-01T12:59:33.212Z</time>
      </trkpt>
      <trkpt lat="53.552606" lon="10.917230">
        <ele>80.772369</ele>
        <time>2021-08-01T12:59:46.205Z</time>
      </trkpt>
      <trkpt lat="53.552605" lon="10.917232">
        <ele>80.772369</ele>
        <time>2021-08-01T12:59:48.922Z</time>
      </trkpt>
    </trkseg>
  </trk>
</gpx>